createdAt,value
2018-05-21T00:01:04.141Z,90.50
2018-05-21T00:03:31.641Z,90.40
2018-05-21T00:05:59.166Z,90.60
2018-05-21T00:08:26.665Z,90.40
2018-05-21T00:10:54.185Z,90.40
2018-05-21T00:13:21.691Z,90.10
2018-05-21T00:15:49.218Z,90.50
2018-05-21T00:18:16.718Z,90.40
2018-05-21T00:20:45.054Z,90.30
2018-05-21T00:23:12.554Z,90.30
2018-05-21T00:25:40.849Z,90.40
2018-05-21T00:28:08.361Z,90.30
2018-05-21T00:30:35.884Z,90.60
2018-05-21T00:33:03.390Z,90.40
2018-05-21T00:35:31.681Z,90.20
2018-05-21T00:37:59.185Z,90.20
2018-05-21T00:40:26.689Z,90.50
2018-05-21T00:42:54.221Z,90.50
2018-05-21T00:45:21.732Z,90.70
2018-05-21T00:47:49.266Z,90.80
2018-05-21T00:50:16.904Z,90.30
2018-05-21T00:52:44.373Z,90.50
2018-05-21T00:55:23.754Z,89.50
2018-05-21T00:57:51.282Z,88.70
2018-05-21T01:00:18.830Z,88.90
2018-05-21T01:02:46.358Z,88.80
2018-05-21T01:05:14.625Z,88.90
2018-05-21T01:07:42.940Z,89.50
2018-05-21T01:10:10.480Z,88.80
2018-05-21T01:12:38.015Z,88.90
2018-05-21T01:15:06.291Z,89.10
2018-05-21T01:17:34.587Z,88.60
2018-05-21T01:20:02.160Z,88.60
2018-05-21T01:22:29.695Z,89.30
2018-05-21T01:24:57.205Z,89.80
2018-05-21T01:27:24.778Z,90.10
2018-05-21T01:29:52.278Z,90.50
2018-05-21T01:32:19.818Z,90.60
2018-05-21T01:34:47.358Z,91.10
2018-05-21T01:37:15.713Z,91.50
2018-05-21T01:39:43.226Z,91.50
2018-05-21T01:42:10.766Z,91.40
2018-05-21T01:44:38.287Z,91.30
2018-05-21T01:47:05.835Z,91.20
2018-05-21T01:49:33.342Z,91.30
2018-05-21T01:52:00.846Z,91.20
2018-05-21T01:54:28.398Z,90.70
2018-05-21T01:56:55.910Z,91.00
2018-05-21T01:59:23.447Z,90.90
2018-05-21T02:01:51.724Z,91.40
2018-05-21T02:04:19.263Z,91.30
2018-05-21T02:06:47.544Z,91.10
2018-05-21T02:09:15.842Z,91.20
2018-05-21T02:11:43.367Z,91.20
2018-05-21T02:14:11.661Z,92.00
2018-05-21T02:16:39.202Z,92.00
2018-05-21T02:19:07.533Z,92.10
2018-05-21T02:21:35.037Z,92.00
2018-05-21T02:24:03.338Z,92.40
2018-05-21T02:26:30.849Z,92.70
2018-05-21T02:28:58.383Z,92.50
2018-05-21T02:31:25.890Z,92.60
2018-05-21T02:33:53.453Z,92.60
2018-05-21T02:36:20.973Z,93.00
2018-05-21T02:38:49.287Z,93.60
2018-05-21T02:41:16.807Z,93.60
2018-05-21T02:43:45.130Z,94.00
2018-05-21T02:46:12.638Z,93.80
2018-05-21T02:48:40.165Z,93.80
2018-05-21T02:51:07.674Z,94.30
2018-05-21T02:53:35.209Z,94.50
2018-05-21T02:56:03.493Z,94.80
2018-05-21T02:58:31.796Z,94.90
2018-05-21T03:00:59.334Z,94.90
2018-05-21T03:03:26.851Z,95.40
2018-05-21T03:05:54.390Z,95.30
2018-05-21T03:08:21.899Z,95.70
2018-05-21T03:10:49.430Z,95.90
2018-05-21T03:13:17.005Z,96.20
2018-05-21T03:15:45.297Z,96.60
2018-05-21T03:18:12.803Z,96.60
2018-05-21T03:20:40.341Z,96.80
2018-05-21T03:23:07.849Z,97.10
2018-05-21T03:25:36.142Z,97.20
2018-05-21T03:28:03.650Z,97.20
2018-05-21T03:30:31.195Z,97.50
2018-05-21T03:32:58.740Z,97.80
2018-05-21T03:35:26.282Z,97.70
2018-05-21T03:37:53.810Z,97.50
2018-05-21T03:40:21.345Z,97.20
2018-05-21T03:42:49.122Z,97.10
2018-05-21T03:45:17.418Z,97.30
2018-05-21T03:47:44.926Z,97.30
2018-05-21T03:50:12.450Z,97.20
2018-05-21T03:52:39.959Z,97.20
2018-05-21T03:55:08.258Z,97.40
2018-05-21T03:57:35.784Z,97.40
2018-05-21T04:00:16.005Z,97.30
2018-05-21T04:02:55.358Z,97.20
2018-05-21T04:05:22.891Z,97.20
2018-05-21T04:07:50.394Z,97.40
2018-05-21T04:10:18.685Z,97.90
2018-05-21T04:12:46.189Z,97.90
2018-05-21T04:15:13.717Z,97.70
2018-05-21T04:17:41.220Z,97.90
2018-05-21T04:20:08.727Z,97.80
2018-05-21T04:22:36.259Z,97.80
2018-05-21T04:25:04.238Z,98.30
2018-05-21T04:27:34.339Z,98.00
2018-05-21T04:30:02.241Z,98.10
2018-05-21T04:32:30.990Z,98.40
2018-05-21T04:34:58.547Z,98.40
2018-05-21T04:37:26.073Z,98.50
2018-05-21T04:39:53.574Z,98.60
2018-05-21T04:42:21.106Z,98.50
2018-05-21T04:44:49.373Z,98.40
2018-05-21T04:47:17.670Z,98.60
2018-05-21T04:49:45.183Z,98.60
2018-05-21T04:52:12.718Z,98.50
2018-05-21T04:54:40.218Z,98.60
2018-05-21T04:57:08.525Z,98.70
2018-05-21T04:59:36.034Z,98.70
2018-05-21T05:02:04.336Z,99.00
2018-05-21T05:04:31.842Z,99.00
2018-05-21T05:06:59.374Z,98.90
2018-05-21T05:09:26.883Z,98.80
2018-05-21T05:11:55.191Z,99.10
2018-05-21T05:14:22.702Z,99.10
2018-05-21T05:16:50.234Z,99.00
2018-05-21T05:19:17.734Z,99.50
2018-05-21T05:21:46.039Z,99.50
2018-05-21T05:24:13.556Z,99.40
2018-05-21T05:26:41.913Z,99.10
2018-05-21T05:29:09.396Z,99.10
2018-05-21T05:31:37.672Z,98.80
2018-05-21T05:34:05.210Z,98.80
2018-05-21T05:36:33.483Z,98.70
2018-05-21T05:39:01.789Z,98.50
2018-05-21T05:41:29.298Z,98.50
2018-05-21T05:43:56.831Z,98.20
2018-05-21T05:46:24.339Z,98.00
2018-05-21T05:48:52.687Z,97.90
2018-05-21T05:51:20.168Z,97.90
2018-05-21T05:53:48.458Z,97.50
2018-05-21T05:56:15.966Z,97.50
2018-05-21T05:58:43.498Z,97.50
2018-05-21T06:01:11.001Z,97.30
2018-05-21T06:03:39.384Z,97.10
2018-05-21T06:06:06.831Z,97.10
2018-05-21T06:08:35.126Z,96.70
2018-05-21T06:11:02.633Z,96.70
2018-05-21T06:13:30.167Z,96.20
2018-05-21T06:15:57.670Z,95.80
2018-05-21T06:18:25.966Z,95.70
2018-05-21T06:20:53.469Z,95.90
2018-05-21T06:23:21.005Z,95.10
2018-05-21T06:25:48.525Z,95.70
2018-05-21T06:28:16.037Z,95.10
2018-05-21T06:30:43.566Z,94.60
2018-05-21T06:33:11.078Z,94.40
2018-05-21T06:35:39.378Z,94.20
2018-05-21T06:38:06.884Z,94.10
2018-05-21T06:40:34.421Z,94.70
2018-05-21T06:43:01.937Z,94.20
2018-05-21T06:45:29.470Z,93.80
2018-05-21T06:47:56.980Z,93.50
2018-05-21T06:50:24.509Z,93.40
2018-05-21T06:52:52.018Z,92.80
2018-05-21T06:55:19.550Z,92.80
2018-05-21T06:57:47.079Z,93.20
2018-05-21T07:00:14.603Z,92.20
2018-05-21T07:02:42.107Z,93.00
2018-05-21T07:05:09.634Z,92.40
2018-05-21T07:07:37.914Z,92.60
2018-05-21T07:10:05.457Z,92.90
2018-05-21T07:12:33.730Z,91.70
2018-05-21T07:15:02.026Z,92.30
2018-05-21T07:17:29.530Z,92.30
2018-05-21T07:19:57.061Z,91.70
2018-05-21T07:22:24.575Z,91.50
2018-05-21T07:24:52.878Z,90.70
2018-05-21T07:27:20.391Z,90.70
2018-05-21T07:29:47.923Z,90.40
2018-05-21T07:32:15.430Z,90.90
2018-05-21T07:34:42.950Z,90.10
2018-05-21T07:37:10.481Z,87.70
2018-05-21T07:39:37.990Z,88.60
2018-05-21T07:42:06.287Z,89.30
2018-05-21T07:44:34.307Z,89.20
2018-05-21T07:47:02.709Z,90.10
2018-05-21T07:49:31.605Z,88.80
2018-05-21T07:51:59.649Z,88.80
2018-05-21T07:54:27.938Z,85.50
2018-05-21T07:56:56.238Z,85.20
2018-05-21T07:59:23.746Z,85.10
2018-05-21T08:01:51.273Z,86.00
2018-05-21T08:04:18.787Z,84.90
2018-05-21T08:06:46.327Z,83.50
2018-05-21T08:09:14.611Z,83.10
2018-05-21T08:11:42.906Z,82.30
2018-05-21T08:14:10.411Z,82.30
2018-05-21T08:16:37.941Z,79.90
2018-05-21T08:19:05.448Z,81.00
2018-05-21T08:21:33.738Z,80.00
2018-05-21T08:24:01.249Z,79.90
2018-05-21T08:26:28.790Z,79.00
2018-05-21T08:28:56.301Z,79.30
2018-05-21T08:31:23.836Z,78.20
2018-05-21T08:33:52.114Z,77.60
2018-05-21T08:36:20.415Z,76.70
2018-05-21T08:38:47.922Z,76.70
2018-05-21T08:41:15.453Z,76.80
2018-05-21T08:43:42.978Z,76.90
2018-05-21T08:46:10.486Z,77.80
2018-05-21T08:48:38.038Z,77.30
2018-05-21T08:51:05.551Z,75.20
2018-05-21T08:53:33.074Z,75.60
2018-05-21T08:56:01.363Z,77.40
2018-05-21T08:58:29.654Z,77.10
2018-05-21T09:00:57.166Z,77.10
2018-05-21T09:03:24.702Z,75.40
2018-05-21T09:05:52.227Z,76.00
2018-05-21T09:08:19.759Z,76.30
2018-05-21T09:10:48.035Z,73.80
2018-05-21T09:13:16.328Z,74.40
2018-05-21T09:15:43.841Z,74.30
2018-05-21T09:18:11.414Z,72.70
2018-05-21T09:20:39.691Z,72.70
2018-05-21T09:23:07.986Z,71.20
2018-05-21T09:25:35.495Z,71.20
2018-05-21T09:28:03.031Z,71.00
2018-05-21T09:30:30.533Z,71.40
2018-05-21T09:32:58.831Z,73.20
2018-05-21T09:35:26.338Z,72.30
2018-05-21T09:37:53.871Z,72.40
2018-05-21T09:40:21.390Z,69.70
2018-05-21T09:42:48.918Z,72.20
2018-05-21T09:45:16.432Z,71.90
2018-05-21T09:47:43.946Z,71.20
2018-05-21T09:50:12.243Z,71.20
2018-05-21T09:52:39.755Z,71.20
2018-05-21T09:55:07.366Z,69.50
2018-05-21T09:57:34.889Z,68.20
2018-05-21T10:00:03.187Z,69.20
2018-05-21T10:02:30.699Z,69.20
2018-05-21T10:04:58.227Z,68.90
2018-05-21T10:07:25.738Z,67.50
2018-05-21T10:09:53.291Z,68.60
2018-05-21T10:12:21.571Z,68.10
2018-05-21T10:14:49.099Z,68.10
2018-05-21T10:17:16.603Z,67.70
2018-05-21T10:19:44.206Z,67.50
2018-05-21T10:22:12.014Z,67.40
2018-05-21T10:24:39.550Z,66.20
2018-05-21T10:27:07.821Z,67.40
2018-05-21T10:29:36.122Z,64.90
2018-05-21T10:32:03.633Z,64.90
2018-05-21T10:34:31.174Z,64.20
2018-05-21T10:36:58.758Z,64.90
2018-05-21T10:39:26.244Z,65.80
2018-05-21T10:41:53.761Z,65.10
2018-05-21T10:44:21.292Z,64.00
2018-05-21T10:46:49.603Z,63.20
2018-05-21T10:49:17.117Z,63.10
2018-05-21T10:51:44.630Z,63.00
2018-05-21T10:54:12.161Z,63.20
2018-05-21T10:56:39.671Z,62.70
2018-05-21T10:59:07.212Z,62.30
2018-05-21T11:01:34.716Z,61.50
2018-05-21T11:04:03.031Z,65.90
2018-05-21T11:06:30.539Z,65.20
2018-05-21T11:08:58.074Z,60.50
2018-05-21T11:11:25.582Z,61.10
2018-05-21T11:13:53.891Z,61.50
2018-05-21T11:16:21.398Z,61.30
2018-05-21T11:18:48.935Z,59.30
2018-05-21T11:21:16.446Z,60.40
2018-05-21T11:23:43.978Z,62.20
2018-05-21T11:26:12.254Z,59.20
2018-05-21T11:28:40.550Z,59.70
2018-05-21T11:31:08.060Z,59.80
2018-05-21T11:33:35.590Z,60.50
2018-05-21T11:36:03.104Z,61.10
2018-05-21T11:38:32.134Z,59.90
2018-05-21T11:40:59.645Z,60.00
2018-05-21T11:43:27.941Z,59.00
2018-05-21T11:45:55.454Z,59.00
2018-05-21T11:48:22.992Z,57.80
2018-05-21T11:50:50.713Z,61.30
2018-05-21T11:53:18.239Z,58.60
2018-05-21T11:55:46.541Z,58.70
2018-05-21T11:58:14.046Z,58.60
2018-05-21T12:00:41.577Z,58.90
2018-05-21T12:03:09.087Z,56.70
2018-05-21T12:05:37.387Z,57.00
2018-05-21T12:08:04.898Z,57.00
2018-05-21T12:10:32.435Z,57.80
2018-05-21T12:12:59.947Z,57.60
2018-05-21T12:15:27.473Z,57.20
2018-05-21T12:17:54.978Z,57.80
2018-05-21T12:20:22.557Z,56.40
2018-05-21T12:22:50.071Z,56.30
2018-05-21T12:25:17.599Z,57.60
2018-05-21T12:27:45.102Z,57.30
2018-05-21T12:30:12.627Z,59.40
2018-05-21T12:32:40.898Z,56.90
2018-05-21T12:35:09.190Z,56.00
2018-05-21T12:37:36.702Z,56.00
2018-05-21T12:40:04.243Z,56.80
2018-05-21T12:42:31.765Z,55.80
2018-05-21T12:44:59.297Z,54.80
2018-05-21T12:47:27.565Z,53.80
2018-05-21T12:49:55.863Z,54.00
2018-05-21T12:52:23.372Z,54.00
2018-05-21T12:54:50.900Z,55.20
2018-05-21T12:57:18.402Z,54.40
2018-05-21T12:59:46.704Z,53.10
2018-05-21T13:02:14.222Z,53.10
2018-05-21T13:04:41.747Z,56.00
2018-05-21T13:07:09.254Z,52.90
2018-05-21T13:09:37.555Z,53.80
2018-05-21T13:12:05.062Z,53.80
2018-05-21T13:14:32.605Z,54.40
2018-05-21T13:17:00.117Z,54.60
2018-05-21T13:19:27.645Z,56.50
2018-05-21T13:21:55.923Z,52.90
2018-05-21T13:24:24.318Z,54.00
2018-05-21T13:26:51.749Z,53.90
2018-05-21T13:29:20.054Z,53.10
2018-05-21T13:31:47.568Z,53.00
2018-05-21T13:34:15.093Z,53.10
2018-05-21T13:36:42.605Z,54.70
2018-05-21T13:39:10.155Z,53.50
2018-05-21T13:41:38.421Z,53.50
2018-05-21T13:44:06.727Z,55.20
2018-05-21T13:46:34.243Z,55.10
2018-05-21T13:49:02.547Z,55.70
2018-05-21T13:51:30.051Z,55.60
2018-05-21T13:53:57.586Z,54.20
2018-05-21T13:56:25.090Z,54.10
2018-05-21T13:58:53.445Z,52.50
2018-05-21T14:01:20.922Z,52.70
2018-05-21T14:03:49.198Z,52.40
2018-05-21T14:06:17.499Z,52.90
2018-05-21T14:08:45.002Z,52.90
2018-05-21T14:11:12.536Z,53.50
2018-05-21T14:13:40.045Z,53.20
2018-05-21T14:16:08.355Z,53.80
2018-05-21T14:18:35.866Z,53.80
2018-05-21T14:21:04.168Z,52.80
2018-05-21T14:23:31.739Z,53.00
2018-05-21T14:25:59.270Z,53.20
2018-05-21T14:28:27.537Z,50.40
2018-05-21T14:30:55.839Z,52.30
2018-05-21T14:33:23.356Z,52.30
2018-05-21T14:35:51.658Z,54.50
2018-05-21T14:38:19.178Z,54.50
2018-05-21T14:40:46.710Z,52.80
2018-05-21T14:43:14.218Z,52.40
2018-05-21T14:45:41.756Z,52.70
2018-05-21T14:48:10.044Z,53.80
2018-05-21T14:50:38.344Z,52.60
2018-05-21T14:53:05.855Z,52.40
2018-05-21T14:55:33.389Z,53.40
2018-05-21T14:58:00.903Z,53.60
2018-05-21T15:00:28.444Z,53.00
2018-05-21T15:02:55.958Z,53.80
2018-05-21T15:05:23.528Z,53.90
2018-05-21T15:07:51.039Z,54.90
2018-05-21T15:10:19.747Z,53.80
2018-05-21T15:12:47.264Z,54.70
2018-05-21T15:15:14.805Z,54.40
2018-05-21T15:17:43.082Z,52.70
2018-05-21T15:20:11.379Z,54.20
2018-05-21T15:22:38.904Z,54.20
2018-05-21T15:25:07.212Z,54.10
2018-05-21T15:27:34.718Z,54.10
2018-05-21T15:30:02.251Z,53.70
2018-05-21T15:32:29.761Z,52.30
2018-05-21T15:34:57.299Z,51.40
2018-05-21T15:37:25.579Z,51.50
2018-05-21T15:39:53.870Z,51.90
2018-05-21T15:42:21.377Z,51.90
2018-05-21T15:44:48.911Z,51.30
2018-05-21T15:47:16.419Z,51.10
2018-05-21T15:49:44.731Z,48.80
2018-05-21T15:52:12.262Z,48.80
2018-05-21T15:54:39.791Z,48.30
2018-05-21T15:57:08.066Z,46.20
2018-05-21T15:59:35.606Z,46.10
2018-05-21T16:02:03.109Z,46.80
2018-05-21T16:04:30.635Z,47.40
2018-05-21T16:06:58.906Z,48.10
2018-05-21T16:09:26.414Z,47.80
2018-05-21T16:11:53.941Z,49.20
2018-05-21T16:14:22.210Z,50.70
2018-05-21T16:16:49.754Z,50.60
2018-05-21T16:19:18.038Z,51.80
2018-05-21T16:21:46.338Z,50.90
2018-05-21T16:24:13.852Z,50.90
2018-05-21T16:26:41.387Z,52.40
2018-05-21T16:29:09.664Z,52.00
2018-05-21T16:31:37.210Z,51.90
2018-05-21T16:34:04.718Z,51.80
2018-05-21T16:36:32.249Z,52.20
2018-05-21T16:38:59.761Z,51.70
2018-05-21T16:41:27.316Z,51.70
2018-05-21T16:43:54.827Z,51.50
2018-05-21T16:46:23.122Z,53.40
2018-05-21T16:48:50.631Z,53.30
2018-05-21T16:51:18.161Z,51.20
2018-05-21T16:53:45.679Z,53.80
2018-05-21T16:56:13.222Z,52.00
2018-05-21T16:58:41.490Z,52.60
2018-05-21T17:01:09.022Z,52.60
2018-05-21T17:03:36.539Z,52.20
2018-05-21T17:06:04.069Z,53.90
2018-05-21T17:08:32.346Z,54.90
2018-05-21T17:11:00.641Z,53.60
2018-05-21T17:13:28.150Z,53.60
2018-05-21T17:15:55.772Z,53.20
2018-05-21T17:18:23.282Z,52.50
2018-05-21T17:20:51.586Z,53.80
2018-05-21T17:23:19.099Z,53.70
2018-05-21T17:25:46.629Z,52.50
2018-05-21T17:28:14.138Z,53.10
2018-05-21T17:30:42.450Z,53.40
2018-05-21T17:33:09.955Z,53.40
2018-05-21T17:35:38.388Z,54.80
2018-05-21T17:38:05.876Z,54.80
2018-05-21T17:40:33.441Z,54.70
2018-05-21T17:43:00.951Z,55.80
2018-05-21T17:45:28.491Z,56.20
2018-05-21T17:47:55.993Z,55.40
2018-05-21T17:50:23.521Z,54.90
2018-05-21T17:52:51.025Z,55.90
2018-05-21T17:55:19.327Z,56.50
2018-05-21T17:57:46.884Z,56.40
2018-05-21T18:00:14.379Z,56.80
2018-05-21T18:02:42.656Z,57.00
2018-05-21T18:05:10.186Z,57.10
2018-05-21T18:07:37.699Z,58.00
2018-05-21T18:10:05.239Z,56.60
2018-05-21T18:12:32.756Z,57.00
2018-05-21T18:15:00.286Z,57.30
2018-05-21T18:17:27.798Z,57.10
2018-05-21T18:19:55.302Z,57.10
2018-05-21T18:22:22.840Z,58.00
2018-05-21T18:24:51.115Z,59.00
2018-05-21T18:27:19.410Z,60.00
2018-05-21T18:29:46.926Z,60.00
2018-05-21T18:32:14.459Z,62.50
2018-05-21T18:34:41.992Z,63.50
2018-05-21T18:37:09.522Z,65.20
2018-05-21T18:39:37.034Z,65.80
2018-05-21T18:42:04.570Z,65.70
2018-05-21T18:44:32.087Z,65.60
2018-05-21T18:47:00.454Z,66.30
2018-05-21T18:49:28.732Z,67.60
2018-05-21T18:51:57.031Z,68.90
2018-05-21T18:54:24.542Z,69.00
2018-05-21T18:56:52.069Z,69.00
2018-05-21T18:59:19.577Z,69.40
2018-05-21T19:01:47.982Z,68.80
2018-05-21T19:04:15.498Z,68.80
2018-05-21T19:06:43.794Z,68.60
2018-05-21T19:09:11.297Z,68.60
2018-05-21T19:11:38.825Z,69.10
2018-05-21T19:14:06.338Z,70.20
2018-05-21T19:16:34.649Z,70.40
2018-05-21T19:19:02.154Z,70.40
2018-05-21T19:21:29.685Z,70.90
2018-05-21T19:23:57.199Z,71.10
2018-05-21T19:26:24.734Z,72.70
2018-05-21T19:28:52.246Z,72.00
2018-05-21T19:31:19.773Z,71.40
2018-05-21T19:33:47.287Z,71.90
2018-05-21T19:36:14.821Z,72.10
2018-05-21T19:38:42.322Z,72.50
2018-05-21T19:41:10.631Z,73.80
2018-05-21T19:43:38.143Z,73.80
2018-05-21T19:46:05.645Z,74.10
2018-05-21T19:48:33.169Z,74.40
2018-05-21T19:51:01.462Z,75.70
2018-05-21T19:53:29.008Z,75.60
2018-05-21T19:55:56.519Z,76.10
2018-05-21T19:58:24.047Z,76.10
2018-05-21T20:00:51.555Z,76.30
2018-05-21T20:03:19.867Z,77.10
2018-05-21T20:05:47.379Z,77.10
2018-05-21T20:08:15.677Z,77.60
2018-05-21T20:10:43.204Z,77.20
2018-05-21T20:13:10.729Z,77.10
2018-05-21T20:15:38.242Z,77.90
2018-05-21T20:18:06.535Z,78.70
2018-05-21T20:20:41.871Z,78.70
2018-05-21T20:23:09.428Z,78.00
2018-05-21T20:25:36.942Z,77.50
2018-05-21T20:28:04.465Z,77.40
2018-05-21T20:30:31.974Z,76.70
2018-05-21T20:33:00.265Z,77.50
2018-05-21T20:35:27.775Z,77.50
2018-05-21T20:37:55.338Z,77.50
2018-05-21T20:40:22.842Z,77.70
2018-05-21T20:42:50.411Z,77.50
2018-05-21T20:45:17.997Z,77.90
2018-05-21T20:47:45.497Z,77.90
2018-05-21T20:50:13.034Z,78.00
2018-05-21T20:52:41.313Z,77.70
2018-05-21T20:55:09.617Z,77.90
2018-05-21T20:57:37.131Z,78.00
2018-05-21T21:00:04.671Z,77.40
2018-05-21T21:02:32.189Z,77.50
2018-05-21T21:04:59.727Z,76.60
2018-05-21T21:07:27.281Z,76.70
2018-05-21T21:09:54.828Z,76.90
2018-05-21T21:12:23.106Z,76.30
2018-05-21T21:14:51.415Z,77.10
2018-05-21T21:17:18.927Z,77.00
2018-05-21T21:19:47.227Z,76.90
2018-05-21T21:22:14.747Z,76.90
2018-05-21T21:24:42.282Z,76.60
2018-05-21T21:27:09.793Z,76.70
2018-05-21T21:29:37.327Z,76.80
2018-05-21T21:32:05.610Z,77.30
2018-05-21T21:34:33.920Z,77.50
2018-05-21T21:37:01.427Z,77.50
2018-05-21T21:39:29.697Z,77.80
2018-05-21T21:41:57.235Z,77.70
2018-05-21T21:44:24.740Z,78.80
2018-05-21T21:46:52.275Z,78.50
2018-05-21T21:49:20.545Z,78.50
2018-05-21T21:51:48.843Z,78.70
2018-05-21T21:54:16.351Z,78.70
2018-05-21T21:56:43.882Z,79.00
2018-05-21T21:59:11.390Z,78.70
2018-05-21T22:01:39.682Z,79.10
2018-05-21T22:04:07.203Z,79.10
2018-05-21T22:06:34.729Z,79.10
2018-05-21T22:09:02.242Z,79.10
2018-05-21T22:11:30.539Z,79.50
2018-05-21T22:13:58.051Z,79.50
2018-05-21T22:16:25.583Z,80.30
2018-05-21T22:18:53.085Z,80.50
2018-05-21T22:21:21.386Z,81.80
2018-05-21T22:23:48.944Z,81.70
2018-05-21T22:26:17.207Z,83.00
2018-05-21T22:28:44.726Z,83.00
2018-05-21T22:31:12.231Z,82.60
2018-05-21T22:33:39.763Z,82.30
2018-05-21T22:36:07.276Z,82.10
2018-05-21T22:38:34.810Z,82.60
2018-05-21T22:41:02.318Z,82.80
2018-05-21T22:43:30.617Z,83.20
2018-05-21T22:45:58.152Z,83.10
2018-05-21T22:48:26.446Z,83.30
2018-05-21T22:50:53.954Z,83.20
2018-05-21T22:53:21.486Z,83.70
2018-05-21T22:55:48.993Z,84.30
2018-05-21T22:58:17.315Z,85.40
2018-05-21T23:00:44.828Z,85.40
2018-05-21T23:03:13.122Z,86.50
2018-05-21T23:05:40.694Z,86.40
2018-05-21T23:08:08.226Z,86.60
2018-05-21T23:10:35.741Z,86.90
2018-05-21T23:13:03.274Z,87.30
2018-05-21T23:15:30.856Z,87.70
2018-05-21T23:17:58.385Z,87.50
2018-05-21T23:20:25.891Z,88.60
2018-05-21T23:22:54.186Z,89.80
2018-05-21T23:25:21.690Z,89.80
2018-05-21T23:27:49.213Z,89.90
2018-05-21T23:30:16.726Z,90.40
2018-05-21T23:32:45.021Z,90.60
2018-05-21T23:35:12.531Z,90.60
2018-05-21T23:37:40.069Z,90.70
2018-05-21T23:40:07.570Z,91.10
2018-05-21T23:42:35.843Z,92.00
2018-05-21T23:45:03.392Z,91.90
2018-05-21T23:47:31.690Z,92.40
2018-05-21T23:49:59.229Z,92.40
2018-05-21T23:52:27.503Z,93.70
2018-05-21T23:54:55.819Z,93.60
2018-05-21T23:57:23.326Z,93.60
2018-05-21T23:59:50.849Z,93.90
